Terminal Aerodrome Forecast
Issued by NWS St Louis, MO

Home | Current Version | Previous Version | Text Only | Print | Product List | Glossary Off
Versions: 1 2 3 4 5 6 7 8 9 10 11 12 13 14 15 16 17 18 19 20 21 22 23 24 25 26 27 28 29

000
FTUS43 KLSX 162327
TAFSTL
TAF
KSTL 162327Z 1700/1806 29007KT P6SM BKN025
      TEMPO 1700/1704 BKN018
     FM170500 30006KT P6SM SCT020
     FM171200 28004KT P6SM FEW250
     FM180000 22004KT P6SM FEW250=

USA.gov is the U.S. government's official web portal to all federal, state and local government web resources and services.